createdAt,value
2017-11-12T00:00:44.996Z,1.89
2017-11-12T00:01:45.049Z,1.91
2017-11-12T00:02:44.974Z,1.94
2017-11-12T00:03:45.352Z,1.94
2017-11-12T00:04:44.372Z,1.92
2017-11-12T00:05:44.728Z,1.91
2017-11-12T00:06:45.207Z,1.89
2017-11-12T00:07:44.097Z,1.88
2017-11-12T00:08:44.067Z,1.87
2017-11-12T00:09:45.092Z,1.85
2017-11-12T00:10:44.077Z,1.84
2017-11-12T00:11:45.807Z,1.78
2017-11-12T00:12:45.247Z,1.76
2017-11-12T00:13:44.698Z,1.73
2017-11-12T00:14:44.712Z,1.71
2017-11-12T00:15:44.640Z,1.68
2017-11-12T00:16:45.606Z,1.70
2017-11-12T00:17:45.033Z,1.68
2017-11-12T00:18:44.995Z,1.73
2017-11-12T00:19:44.845Z,1.74
2017-11-12T00:20:44.978Z,1.74
2017-11-12T00:21:44.937Z,1.74
2017-11-12T00:22:45.722Z,1.71
2017-11-12T00:23:45.994Z,1.71
2017-11-12T00:24:45.348Z,1.71
2017-11-12T00:25:44.710Z,1.73
2017-11-12T00:26:44.661Z,1.71
2017-11-12T00:27:44.659Z,1.70
2017-11-12T00:28:45.489Z,1.70
2017-11-12T00:29:45.004Z,1.68
2017-11-12T00:30:44.130Z,1.71
2017-11-12T00:31:44.429Z,1.68
2017-11-12T00:32:44.455Z,1.70
2017-11-12T00:33:45.205Z,1.67
2017-11-12T00:34:45.692Z,1.66
2017-11-12T00:35:45.687Z,1.62
2017-11-12T00:36:46.078Z,1.59
2017-11-12T00:37:44.607Z,1.58
2017-11-12T00:38:44.901Z,1.56
2017-11-12T00:39:45.648Z,1.55
2017-11-12T00:40:44.385Z,1.55
2017-11-12T00:41:44.398Z,1.53
2017-11-12T00:42:44.382Z,1.55
2017-11-12T00:43:44.607Z,1.58
2017-11-12T00:44:45.046Z,1.58
2017-11-12T00:45:45.035Z,1.59
2017-11-12T00:46:44.012Z,1.56
2017-11-12T00:47:45.538Z,1.55
2017-11-12T00:48:44.896Z,1.50
2017-11-12T00:49:44.939Z,1.48
2017-11-12T00:50:45.761Z,1.49
2017-11-12T00:51:45.267Z,1.49
2017-11-12T00:52:44.631Z,1.45
2017-11-12T00:53:44.992Z,1.45
2017-11-12T00:54:45.355Z,1.48
2017-11-12T00:55:44.827Z,1.49
2017-11-12T00:56:45.219Z,1.49
2017-11-12T00:57:44.279Z,1.50
2017-11-12T00:58:44.382Z,1.50
2017-11-12T00:59:44.904Z,1.52
2017-11-12T01:00:45.279Z,1.56
2017-11-12T01:01:44.753Z,1.58
2017-11-12T01:02:45.185Z,1.58
2017-11-12T01:03:44.128Z,1.56
2017-11-12T01:04:44.025Z,1.55
2017-11-12T01:05:44.588Z,1.50
2017-11-12T01:06:45.046Z,1.49
2017-11-12T01:07:45.393Z,1.45
2017-11-12T01:08:44.391Z,1.42
2017-11-12T01:09:44.409Z,1.37
2017-11-12T01:10:44.451Z,1.31
2017-11-12T01:11:45.013Z,1.24
2017-11-12T01:12:46.091Z,1.22
2017-11-12T01:13:45.442Z,1.19
2017-11-12T01:14:44.490Z,1.16
2017-11-12T01:15:45.019Z,1.10
2017-11-12T01:16:45.241Z,1.10
2017-11-12T01:17:44.463Z,1.08
2017-11-12T01:18:45.375Z,1.05
2017-11-12T01:19:44.293Z,1.04
2017-11-12T01:20:44.210Z,1.01
2017-11-12T01:21:44.612Z,0.98
2017-11-12T01:22:45.180Z,0.95
2017-11-12T01:23:44.588Z,0.92
2017-11-12T01:24:45.672Z,0.88
2017-11-12T01:25:44.638Z,0.87
2017-11-12T01:26:44.946Z,0.86
2017-11-12T01:27:45.376Z,0.83
2017-11-12T01:28:44.888Z,0.81
2017-11-12T01:29:45.307Z,0.83
2017-11-12T01:30:44.690Z,0.84
2017-11-12T01:31:44.723Z,0.83
2017-11-12T01:32:45.114Z,0.84
2017-11-12T01:33:45.467Z,0.84
2017-11-12T01:34:44.601Z,0.84
2017-11-12T01:35:44.841Z,0.84
2017-11-12T01:36:46.320Z,0.88
2017-11-12T01:37:44.346Z,0.87
2017-11-12T01:38:44.258Z,0.87
2017-11-12T01:39:44.790Z,0.88
2017-11-12T01:40:45.207Z,0.88
2017-11-12T01:41:44.588Z,0.91
2017-11-12T01:42:46.203Z,0.88
2017-11-12T01:43:44.689Z,0.91
2017-11-12T01:44:44.718Z,0.92
2017-11-12T01:45:44.650Z,0.92
2017-11-12T01:46:45.281Z,0.94
2017-11-12T01:47:44.182Z,0.92
2017-11-12T01:48:44.177Z,0.92
2017-11-12T01:49:44.042Z,0.92
2017-11-12T01:50:44.980Z,0.92
2017-11-12T01:51:45.556Z,0.91
2017-11-12T01:52:44.398Z,0.88
2017-11-12T01:53:44.550Z,0.87
2017-11-12T01:54:44.071Z,0.84
2017-11-12T01:55:44.584Z,0.86
2017-11-12T01:56:44.537Z,0.86
2017-11-12T01:57:45.468Z,0.84
2017-11-12T01:58:45.327Z,0.81
2017-11-12T01:59:44.638Z,0.81
2017-11-12T02:00:45.071Z,0.83
2017-11-12T02:01:44.489Z,0.83
2017-11-12T02:02:44.893Z,0.84
2017-11-12T02:03:45.693Z,0.87
2017-11-12T02:04:44.603Z,0.94
2017-11-12T02:05:45.065Z,1.01
2017-11-12T02:06:44.514Z,1.04
2017-11-12T02:07:44.583Z,1.10
2017-11-12T02:08:44.760Z,1.13
2017-11-12T02:09:45.392Z,1.14
2017-11-12T02:10:44.710Z,1.19
2017-11-12T02:11:45.044Z,1.20
2017-11-12T02:12:44.116Z,1.26
2017-11-12T02:13:44.504Z,1.32
2017-11-12T02:14:44.602Z,1.40
2017-11-12T02:15:44.580Z,1.44
2017-11-12T02:16:44.733Z,1.50
2017-11-12T02:17:44.575Z,1.58
2017-11-12T02:18:44.540Z,1.56
2017-11-12T02:19:44.925Z,1.56
2017-11-12T02:20:45.274Z,1.60
2017-11-12T02:21:44.626Z,1.59
2017-11-12T02:22:45.097Z,1.62
2017-11-12T02:23:45.635Z,1.63
2017-11-12T02:24:44.870Z,1.66
2017-11-12T02:25:45.199Z,1.66
2017-11-12T02:26:44.388Z,1.66
2017-11-12T02:27:44.227Z,1.68
2017-11-12T02:28:44.541Z,1.71
2017-11-12T02:29:44.081Z,1.76
2017-11-12T02:30:44.430Z,1.74
2017-11-12T02:31:45.098Z,1.78
2017-11-12T02:32:45.006Z,1.78
2017-11-12T02:33:44.431Z,1.85
2017-11-12T02:34:45.099Z,1.89
2017-11-12T02:35:44.559Z,1.91
2017-11-12T02:36:45.219Z,1.95
2017-11-12T02:37:44.161Z,1.97
2017-11-12T02:38:44.430Z,1.99
2017-11-12T02:39:44.635Z,2.02
2017-11-12T02:40:44.424Z,2.04
2017-11-12T02:41:44.642Z,2.06
2017-11-12T02:42:45.870Z,2.06
2017-11-12T02:43:44.486Z,2.06
2017-11-12T02:44:43.982Z,2.00
2017-11-12T02:45:45.075Z,1.99
2017-11-12T02:46:44.964Z,1.99
2017-11-12T02:47:45.777Z,1.97
2017-11-12T02:48:45.215Z,1.92
2017-11-12T02:49:45.442Z,1.89
2017-11-12T02:50:44.768Z,1.87
2017-11-12T02:51:45.232Z,1.85
2017-11-12T02:52:45.131Z,1.84
2017-11-12T02:53:44.748Z,1.81
2017-11-12T02:54:44.977Z,1.81
2017-11-12T02:55:44.968Z,1.80
2017-11-12T02:56:45.164Z,1.80
2017-11-12T02:57:44.351Z,1.80
2017-11-12T02:58:45.126Z,1.80
2017-11-12T02:59:44.821Z,1.78
2017-11-12T03:00:44.473Z,1.81
2017-11-12T03:01:45.488Z,1.84
2017-11-12T03:02:45.831Z,1.81
2017-11-12T03:03:45.170Z,1.85
2017-11-12T03:04:45.493Z,1.88
2017-11-12T03:05:46.110Z,1.88
2017-11-12T03:06:44.518Z,1.85
2017-11-12T03:07:44.320Z,1.81
2017-11-12T03:08:44.843Z,1.84
2017-11-12T03:09:46.096Z,1.81
2017-11-12T03:10:45.815Z,1.81
2017-11-12T03:11:44.326Z,1.85
2017-11-12T03:12:45.604Z,1.87
2017-11-12T03:13:44.675Z,1.85
2017-11-12T03:14:44.937Z,1.85
2017-11-12T03:15:45.280Z,1.84
2017-11-12T03:16:45.798Z,1.84
2017-11-12T03:17:45.290Z,1.81
2017-11-12T03:18:45.321Z,1.84
2017-11-12T03:19:44.963Z,1.84
2017-11-12T03:20:45.231Z,1.84
2017-11-12T03:21:44.225Z,1.84
2017-11-12T03:22:45.468Z,1.81
2017-11-12T03:23:45.360Z,1.81
2017-11-12T03:24:45.085Z,1.81
2017-11-12T03:25:45.178Z,1.80
2017-11-12T03:26:45.755Z,1.80
2017-11-12T03:27:44.566Z,1.80
2017-11-12T03:28:44.603Z,1.80
2017-11-12T03:29:44.561Z,1.80
2017-11-12T03:30:45.033Z,1.84
2017-11-12T03:31:47.177Z,1.85
2017-11-12T03:32:44.266Z,1.88
2017-11-12T03:33:45.184Z,1.91
2017-11-12T03:34:46.101Z,1.92
2017-11-12T03:35:46.046Z,1.92
2017-11-12T03:36:45.520Z,1.94
2017-11-12T03:37:46.753Z,1.94
2017-11-12T03:38:45.242Z,1.94
2017-11-12T03:39:45.489Z,1.95
2017-11-12T03:40:44.643Z,1.95
2017-11-12T03:41:45.335Z,1.94
2017-11-12T03:42:45.367Z,1.94
2017-11-12T03:43:47.208Z,1.92
2017-11-12T03:44:45.659Z,1.92
2017-11-12T03:45:45.730Z,1.92
2017-11-12T03:46:45.165Z,1.92
2017-11-12T03:47:45.291Z,1.95
2017-11-12T03:48:45.534Z,1.95
2017-11-12T03:49:45.392Z,1.95
2017-11-12T03:50:44.518Z,1.95
2017-11-12T03:51:45.047Z,1.94
2017-11-12T03:52:45.044Z,1.94
2017-11-12T03:53:45.701Z,1.92
2017-11-12T03:54:44.637Z,1.92
2017-11-12T03:55:45.399Z,1.91
2017-11-12T03:56:44.613Z,1.89
2017-11-12T03:57:45.039Z,1.92
2017-11-12T03:58:44.963Z,1.91
2017-11-12T03:59:45.169Z,1.94
2017-11-12T04:00:44.552Z,1.94
2017-11-12T04:01:44.488Z,1.97
2017-11-12T04:02:46.455Z,1.99
2017-11-12T04:03:45.924Z,2.00
2017-11-12T04:04:45.819Z,2.00
2017-11-12T04:05:45.768Z,2.06
2017-11-12T04:06:45.310Z,2.07
2017-11-12T04:07:46.848Z,2.08
2017-11-12T04:08:45.460Z,2.07
2017-11-12T04:09:45.312Z,2.10
2017-11-12T04:10:45.965Z,2.10
2017-11-12T04:11:44.425Z,2.10
2017-11-12T04:12:44.409Z,2.11
2017-11-12T04:13:44.806Z,2.11
2017-11-12T04:14:45.615Z,2.10
2017-11-12T04:15:45.151Z,2.10
2017-11-12T04:16:45.312Z,2.08
2017-11-12T04:17:45.371Z,2.07
2017-11-12T04:18:45.108Z,2.07
2017-11-12T04:19:45.634Z,2.08
2017-11-12T04:20:45.513Z,2.08
2017-11-12T04:21:47.418Z,2.10
2017-11-12T04:22:45.544Z,2.10
2017-11-12T04:23:45.656Z,2.10
2017-11-12T04:24:45.654Z,2.10
2017-11-12T04:25:45.530Z,2.08
2017-11-12T04:26:44.901Z,2.08
2017-11-12T04:27:45.644Z,2.08
2017-11-12T04:28:45.540Z,2.08
2017-11-12T04:29:45.370Z,2.08
2017-11-12T04:30:44.148Z,2.10
2017-11-12T04:31:44.750Z,2.10
2017-11-12T04:32:44.606Z,2.08
2017-11-12T04:33:45.708Z,2.11
2017-11-12T04:34:45.003Z,2.08
2017-11-12T04:35:46.090Z,2.08
2017-11-12T04:36:45.912Z,2.10
2017-11-12T04:37:45.558Z,2.10
2017-11-12T04:38:45.229Z,2.10
2017-11-12T04:39:45.674Z,2.10
2017-11-12T04:40:45.717Z,2.10
2017-11-12T04:41:44.928Z,2.11
2017-11-12T04:42:45.710Z,2.11
2017-11-12T04:43:44.698Z,2.13
2017-11-12T04:44:45.461Z,2.14
2017-11-12T04:45:44.396Z,2.14
2017-11-12T04:46:44.234Z,2.14
2017-11-12T04:47:44.171Z,2.14
2017-11-12T04:48:44.711Z,2.14
2017-11-12T04:49:45.352Z,2.13
2017-11-12T04:50:44.300Z,2.10
2017-11-12T04:51:44.649Z,2.10
2017-11-12T04:52:44.740Z,2.10
2017-11-12T04:53:45.257Z,2.10
2017-11-12T04:54:44.195Z,2.08
2017-11-12T04:55:44.733Z,2.08
2017-11-12T04:56:45.009Z,2.07
2017-11-12T04:57:45.381Z,2.07
2017-11-12T04:58:44.723Z,2.08
2017-11-12T04:59:44.682Z,2.07
2017-11-12T05:00:45.044Z,2.07
2017-11-12T05:01:44.869Z,2.06
2017-11-12T05:02:45.055Z,2.04
2017-11-12T05:03:45.318Z,2.06
2017-11-12T05:04:44.743Z,2.06
2017-11-12T05:05:44.737Z,2.07
2017-11-12T05:06:45.320Z,2.08
2017-11-12T05:07:44.668Z,2.08
2017-11-12T05:08:45.113Z,2.13
2017-11-12T05:09:45.262Z,2.10
2017-11-12T05:10:44.590Z,2.10
2017-11-12T05:11:44.956Z,2.10
2017-11-12T05:12:45.373Z,2.08
2017-11-12T05:13:44.990Z,2.07
2017-11-12T05:14:44.532Z,2.06
2017-11-12T05:15:44.887Z,2.02
2017-11-12T05:16:45.233Z,2.02
2017-11-12T05:17:44.067Z,2.04
2017-11-12T05:18:45.872Z,2.06
2017-11-12T05:19:44.542Z,2.06
2017-11-12T05:20:44.876Z,2.07
2017-11-12T05:21:44.851Z,2.06
2017-11-12T05:22:44.773Z,2.06
2017-11-12T05:23:45.164Z,2.07
2017-11-12T05:24:44.411Z,2.07
2017-11-12T05:25:44.838Z,2.08
2017-11-12T05:26:44.734Z,2.07
2017-11-12T05:27:45.063Z,2.08
2017-11-12T05:28:45.368Z,2.07
2017-11-12T05:29:44.399Z,2.07
2017-11-12T05:30:44.833Z,2.06
2017-11-12T05:31:45.233Z,2.07
2017-11-12T05:32:44.328Z,2.07
2017-11-12T05:33:44.755Z,2.08
2017-11-12T05:34:45.636Z,2.08
2017-11-12T05:35:44.913Z,2.10
2017-11-12T05:36:44.926Z,2.10
2017-11-12T05:37:44.732Z,2.10
2017-11-12T05:38:46.023Z,2.10
2017-11-12T05:39:45.368Z,2.10
2017-11-12T05:40:44.741Z,2.11
2017-11-12T05:41:45.061Z,2.10
2017-11-12T05:42:45.075Z,2.10
2017-11-12T05:43:44.541Z,2.11
2017-11-12T05:44:44.516Z,2.13
2017-11-12T05:45:44.988Z,2.13
2017-11-12T05:46:45.426Z,2.15
2017-11-12T05:47:44.538Z,2.17
2017-11-12T05:48:44.631Z,2.20
2017-11-12T05:49:44.604Z,2.20
2017-11-12T05:50:45.694Z,2.24
2017-11-12T05:51:45.286Z,2.25
2017-11-12T05:52:44.602Z,2.26
2017-11-12T05:53:44.529Z,2.28
2017-11-12T05:54:44.638Z,2.28
2017-11-12T05:55:45.254Z,2.31
2017-11-12T05:56:45.064Z,2.33
2017-11-12T05:57:45.535Z,2.32
2017-11-12T05:58:44.495Z,2.32
2017-11-12T05:59:44.830Z,2.32
2017-11-12T06:00:45.312Z,2.31
2017-11-12T06:01:45.178Z,2.31
2017-11-12T06:02:44.872Z,2.32
2017-11-12T06:03:45.273Z,2.32
2017-11-12T06:04:44.205Z,2.32
2017-11-12T06:05:44.647Z,2.33
2017-11-12T06:06:45.054Z,2.35
2017-11-12T06:07:45.510Z,2.33
2017-11-12T06:08:44.461Z,2.33
2017-11-12T06:09:45.089Z,2.32
2017-11-12T06:10:44.064Z,2.32
2017-11-12T06:11:44.133Z,2.33
2017-11-12T06:12:44.828Z,2.33
2017-11-12T06:13:45.021Z,2.33
2017-11-12T06:14:45.287Z,2.32
2017-11-12T06:15:45.020Z,2.31
2017-11-12T06:16:44.857Z,2.29
2017-11-12T06:17:45.236Z,2.29
2017-11-12T06:18:44.980Z,2.28
2017-11-12T06:19:44.859Z,2.29
2017-11-12T06:20:45.234Z,2.28
2017-11-12T06:21:44.896Z,2.29
2017-11-12T06:22:45.625Z,2.29
2017-11-12T06:23:45.127Z,2.31
2017-11-12T06:24:44.629Z,2.33
2017-11-12T06:25:44.594Z,2.35
2017-11-12T06:26:44.906Z,2.38
2017-11-12T06:27:45.247Z,2.38
2017-11-12T06:28:44.542Z,2.39
2017-11-12T06:29:45.170Z,2.38
2017-11-12T06:30:44.400Z,2.38
2017-11-12T06:31:44.607Z,2.42
2017-11-12T06:32:44.735Z,2.42
2017-11-12T06:33:44.802Z,2.42
2017-11-12T06:34:44.734Z,2.43
2017-11-12T06:35:44.768Z,2.44
2017-11-12T06:36:44.741Z,2.44
2017-11-12T06:37:44.988Z,2.43
2017-11-12T06:38:45.958Z,2.46
2017-11-12T06:39:45.360Z,2.46
2017-11-12T06:40:44.887Z,2.46
2017-11-12T06:41:44.863Z,2.46
2017-11-12T06:42:44.883Z,2.49
2017-11-12T06:43:44.237Z,2.47
2017-11-12T06:44:45.045Z,2.46
2017-11-12T06:45:45.560Z,2.46
2017-11-12T06:46:45.171Z,2.47
2017-11-12T06:47:44.523Z,2.46
2017-11-12T06:48:44.707Z,2.46
2017-11-12T06:49:45.143Z,2.47
2017-11-12T06:50:44.092Z,2.46
2017-11-12T06:51:44.218Z,2.47
2017-11-12T06:52:44.576Z,2.47
2017-11-12T06:53:45.117Z,2.49
2017-11-12T06:54:45.521Z,2.46
2017-11-12T06:55:45.008Z,2.46
2017-11-12T06:56:44.996Z,2.46
2017-11-12T06:57:44.548Z,2.46
2017-11-12T06:58:44.996Z,2.44
2017-11-12T06:59:45.218Z,2.44
2017-11-12T07:00:45.292Z,2.49
2017-11-12T07:01:45.368Z,2.53
2017-11-12T07:02:44.588Z,2.54
2017-11-12T07:03:45.407Z,2.54
2017-11-12T07:04:46.221Z,2.56
2017-11-12T07:05:46.275Z,2.56
2017-11-12T07:06:46.190Z,2.56
2017-11-12T07:07:45.392Z,2.56
2017-11-12T07:08:44.748Z,2.56
2017-11-12T07:09:45.158Z,2.57
2017-11-12T07:10:45.889Z,2.56
2017-11-12T07:11:45.899Z,2.56
2017-11-12T07:12:45.775Z,2.60
2017-11-12T07:13:45.063Z,2.61
2017-11-12T07:14:44.257Z,2.62
2017-11-12T07:15:44.696Z,2.65
2017-11-12T07:16:45.401Z,2.68
2017-11-12T07:17:45.017Z,2.72
2017-11-12T07:18:45.444Z,2.75
2017-11-12T07:19:45.115Z,2.80
2017-11-12T07:20:44.603Z,2.79
2017-11-12T07:21:45.068Z,2.82
2017-11-12T07:22:45.037Z,2.85
2017-11-12T07:23:45.633Z,2.87
2017-11-12T07:24:44.888Z,2.89
2017-11-12T07:25:45.803Z,2.89
2017-11-12T07:26:45.350Z,2.90
2017-11-12T07:27:44.794Z,2.90
2017-11-12T07:28:45.287Z,2.92
2017-11-12T07:29:44.918Z,2.92
2017-11-12T07:30:44.912Z,2.92
2017-11-12T07:31:45.847Z,2.95
2017-11-12T07:32:45.041Z,2.95
2017-11-12T07:33:44.853Z,2.98
2017-11-12T07:34:45.360Z,3.01
2017-11-12T07:35:44.797Z,3.01
2017-11-12T07:36:44.317Z,3.05
2017-11-12T07:37:44.695Z,3.05
2017-11-12T07:38:44.796Z,3.10
2017-11-12T07:39:44.838Z,3.11
2017-11-12T07:40:45.229Z,3.14
2017-11-12T07:41:44.732Z,3.16
2017-11-12T07:42:45.436Z,3.21
2017-11-12T07:43:44.905Z,3.22
2017-11-12T07:44:45.563Z,3.25
2017-11-12T07:45:45.348Z,3.26
2017-11-12T07:46:44.946Z,3.29
2017-11-12T07:47:44.870Z,3.31
2017-11-12T07:48:45.693Z,3.32
2017-11-12T07:49:44.772Z,3.31
2017-11-12T07:50:44.956Z,3.32
2017-11-12T07:51:44.604Z,3.34
2017-11-12T07:52:44.675Z,3.34
2017-11-12T07:53:45.240Z,3.34
2017-11-12T07:54:45.214Z,3.34
2017-11-12T07:55:44.822Z,3.36
2017-11-12T07:56:45.017Z,3.37
2017-11-12T07:57:45.360Z,3.36
2017-11-12T07:58:44.494Z,3.37
2017-11-12T07:59:45.359Z,3.37
2017-11-12T08:00:44.559Z,3.37
2017-11-12T08:01:44.557Z,3.37
2017-11-12T08:02:44.962Z,3.37
2017-11-12T08:03:44.744Z,3.40
2017-11-12T08:04:45.280Z,3.37
2017-11-12T08:05:45.247Z,3.40
2017-11-12T08:06:44.877Z,3.40
2017-11-12T08:07:44.825Z,3.40
2017-11-12T08:08:44.824Z,3.40
2017-11-12T08:09:45.047Z,3.40
2017-11-12T08:10:44.659Z,3.40
2017-11-12T08:11:45.149Z,3.42
2017-11-12T08:12:44.470Z,3.42
2017-11-12T08:13:44.575Z,3.44
2017-11-12T08:14:45.020Z,3.45
2017-11-12T08:15:45.925Z,3.45
2017-11-12T08:16:45.071Z,3.48
2017-11-12T08:17:45.012Z,3.48
2017-11-12T08:18:45.059Z,3.50
2017-11-12T08:19:44.589Z,3.51
2017-11-12T08:20:45.208Z,3.51
2017-11-12T08:21:45.886Z,3.55
2017-11-12T08:22:44.912Z,3.56
2017-11-12T08:23:45.837Z,3.58
2017-11-12T08:24:44.772Z,3.59
2017-11-12T08:25:44.879Z,3.59
2017-11-12T08:26:45.405Z,3.62
2017-11-12T08:27:45.014Z,3.65
2017-11-12T08:28:45.217Z,3.69
2017-11-12T08:29:44.923Z,3.70
2017-11-12T08:30:45.453Z,3.76
2017-11-12T08:31:44.918Z,3.81
2017-11-12T08:32:45.978Z,3.84
2017-11-12T08:33:44.975Z,3.91
2017-11-12T08:34:44.729Z,3.95
2017-11-12T08:35:45.356Z,3.98
2017-11-12T08:36:44.986Z,4.02
2017-11-12T08:37:45.854Z,4.05
2017-11-12T08:38:44.303Z,4.05
2017-11-12T08:39:44.454Z,4.08
2017-11-12T08:40:45.613Z,4.06
2017-11-12T08:41:45.096Z,4.05
2017-11-12T08:42:45.269Z,4.02
2017-11-12T08:43:45.574Z,4.01
2017-11-12T08:44:44.737Z,3.99
2017-11-12T08:45:45.290Z,4.01
2017-11-12T08:46:45.007Z,4.01
2017-11-12T08:47:45.349Z,4.01
2017-11-12T08:48:45.200Z,4.02
2017-11-12T08:49:45.063Z,4.01
2017-11-12T08:50:44.635Z,4.02
2017-11-12T08:51:44.600Z,4.04
2017-11-12T08:52:44.911Z,4.04
2017-11-12T08:53:45.371Z,4.04
2017-11-12T08:54:44.554Z,4.05
2017-11-12T08:55:47.131Z,4.05
2017-11-12T08:56:45.218Z,4.04
2017-11-12T08:57:44.969Z,4.04
2017-11-12T08:58:44.311Z,4.05
2017-11-12T08:59:45.179Z,4.06
2017-11-12T09:00:44.918Z,4.08
2017-11-12T09:01:45.270Z,4.06
2017-11-12T09:02:45.994Z,4.10
2017-11-12T09:03:44.608Z,4.13
2017-11-12T09:04:45.371Z,4.10
2017-11-12T09:05:45.043Z,4.12
2017-11-12T09:06:45.246Z,4.12
2017-11-12T09:07:44.472Z,4.13
2017-11-12T09:08:45.221Z,4.14
2017-11-12T09:09:44.466Z,4.14
2017-11-12T09:10:44.983Z,4.16
2017-11-12T09:11:45.201Z,4.19
2017-11-12T09:12:44.437Z,4.19
2017-11-12T09:13:44.648Z,4.20
2017-11-12T09:14:44.977Z,4.20
2017-11-12T09:15:45.614Z,4.24
2017-11-12T09:16:45.476Z,4.24
2017-11-12T09:17:45.135Z,4.24
2017-11-12T09:18:44.688Z,4.26
2017-11-12T09:19:44.949Z,4.30
2017-11-12T09:20:45.051Z,4.31
2017-11-12T09:21:45.622Z,4.31
2017-11-12T09:22:44.860Z,4.34
2017-11-12T09:23:44.396Z,4.37
2017-11-12T09:24:44.816Z,4.37
2017-11-12T09:25:45.208Z,4.40
2017-11-12T09:26:45.130Z,4.41
2017-11-12T09:27:45.663Z,4.44
2017-11-12T09:28:45.748Z,4.44
2017-11-12T09:29:46.006Z,4.44
2017-11-12T09:30:44.949Z,4.45
2017-11-12T09:31:45.550Z,4.48
2017-11-12T09:32:46.683Z,4.50
2017-11-12T09:33:44.843Z,4.50
2017-11-12T09:34:45.509Z,4.53
2017-11-12T09:35:45.902Z,4.53
2017-11-12T09:36:45.242Z,4.55
2017-11-12T09:37:44.868Z,4.55
2017-11-12T09:38:45.752Z,4.58
2017-11-12T09:39:45.302Z,4.59
2017-11-12T09:40:46.169Z,4.59
2017-11-12T09:41:45.069Z,4.60
2017-11-12T09:42:44.858Z,4.60
2017-11-12T09:43:45.272Z,4.63
2017-11-12T09:44:45.383Z,4.63
2017-11-12T09:45:50.285Z,4.66
2017-11-12T09:46:46.232Z,4.63
2017-11-12T09:47:44.659Z,4.62
2017-11-12T09:48:45.971Z,4.62
2017-11-12T09:49:44.928Z,4.63
2017-11-12T09:50:45.217Z,4.63
2017-11-12T09:51:44.892Z,4.62
2017-11-12T09:52:45.663Z,4.62
2017-11-12T09:53:45.005Z,4.66
2017-11-12T09:54:44.813Z,4.70
2017-11-12T09:55:45.788Z,4.68
2017-11-12T09:56:45.727Z,4.67
2017-11-12T09:57:45.049Z,4.68
2017-11-12T09:58:45.341Z,4.70
2017-11-12T09:59:44.680Z,4.71
2017-11-12T10:00:44.981Z,4.73
2017-11-12T10:01:46.147Z,4.73
2017-11-12T10:02:45.817Z,4.71
2017-11-12T10:03:47.025Z,4.71
2017-11-12T10:04:45.599Z,4.73
2017-11-12T10:05:45.327Z,4.71
2017-11-12T10:06:44.972Z,4.74
2017-11-12T10:07:45.013Z,4.75
2017-11-12T10:08:45.010Z,4.73
2017-11-12T10:09:45.113Z,4.75
2017-11-12T10:10:45.622Z,4.75
2017-11-12T10:11:46.425Z,4.75
2017-11-12T10:12:45.382Z,4.75
2017-11-12T10:13:45.445Z,4.73
2017-11-12T10:14:45.296Z,4.73
2017-11-12T10:15:45.331Z,4.71
2017-11-12T10:16:45.220Z,4.71
2017-11-12T10:17:46.302Z,4.73
2017-11-12T10:18:45.591Z,4.73
2017-11-12T10:19:44.935Z,4.71
2017-11-12T10:20:46.301Z,4.74
2017-11-12T10:21:46.456Z,4.73
2017-11-12T10:22:45.042Z,4.70
2017-11-12T10:23:45.876Z,4.71
2017-11-12T10:24:44.730Z,4.73
2017-11-12T10:25:45.109Z,4.67
2017-11-12T10:26:45.320Z,4.66
2017-11-12T10:27:45.177Z,4.66
2017-11-12T10:28:44.820Z,4.66
2017-11-12T10:29:46.282Z,4.68
2017-11-12T10:30:45.096Z,4.70
2017-11-12T10:31:44.557Z,4.67
2017-11-12T10:32:46.201Z,4.67
2017-11-12T10:33:45.473Z,4.68
2017-11-12T10:34:46.090Z,4.71
2017-11-12T10:35:45.382Z,4.74
2017-11-12T10:36:45.808Z,4.78
2017-11-12T10:37:45.805Z,4.84
2017-11-12T10:38:45.266Z,4.92
2017-11-12T10:39:45.178Z,4.97
2017-11-12T10:40:44.841Z,5.02
2017-11-12T10:41:45.110Z,5.08
2017-11-12T10:42:45.191Z,5.14
2017-11-12T10:43:45.278Z,5.20
2017-11-12T10:44:45.192Z,5.26
2017-11-12T10:45:45.369Z,5.33
2017-11-12T10:46:45.784Z,5.38
2017-11-12T10:47:46.668Z,5.38
2017-11-12T10:48:45.250Z,5.36
2017-11-12T10:49:45.034Z,5.32
2017-11-12T10:50:44.986Z,5.28
2017-11-12T10:51:45.035Z,5.25
2017-11-12T10:52:44.810Z,5.26
2017-11-12T10:53:45.760Z,5.28
2017-11-12T10:54:45.335Z,5.26
2017-11-12T10:55:45.428Z,5.18
2017-11-12T10:56:45.518Z,5.12
2017-11-12T10:57:46.764Z,5.15
2017-11-12T10:59:05.494Z,5.14
2017-11-12T10:59:45.783Z,5.14
2017-11-12T11:00:45.947Z,5.17
2017-11-12T11:01:45.663Z,5.23
2017-11-12T11:02:45.364Z,5.29
2017-11-12T11:03:45.038Z,5.33
2017-11-12T11:04:44.923Z,5.35
2017-11-12T11:05:45.897Z,5.41
2017-11-12T11:06:45.987Z,5.39
2017-11-12T11:07:45.693Z,5.43
2017-11-12T11:08:46.273Z,5.44
2017-11-12T11:09:45.973Z,5.46
2017-11-12T11:10:44.529Z,5.44
2017-11-12T11:11:45.692Z,5.46
2017-11-12T11:12:44.899Z,5.44
2017-11-12T11:13:45.825Z,5.43
2017-11-12T11:14:46.111Z,5.43
2017-11-12T11:15:44.842Z,5.38
2017-11-12T11:16:46.660Z,5.36
2017-11-12T11:17:47.167Z,5.32
2017-11-12T11:18:44.776Z,5.30
2017-11-12T11:19:46.399Z,5.26
2017-11-12T11:20:47.044Z,5.28
2017-11-12T11:21:44.990Z,5.26
2017-11-12T11:22:47.381Z,5.28
2017-11-12T11:23:46.153Z,5.29
2017-11-12T11:24:44.889Z,5.29
2017-11-12T11:25:45.619Z,5.30
2017-11-12T11:26:44.884Z,5.26
2017-11-12T11:27:45.890Z,5.28
2017-11-12T11:28:45.581Z,5.30
2017-11-12T11:29:45.720Z,5.36
2017-11-12T11:30:44.538Z,5.32
2017-11-12T11:31:45.977Z,5.30
2017-11-12T11:32:44.852Z,5.29
2017-11-12T11:33:46.218Z,5.21
2017-11-12T11:34:45.661Z,5.15
2017-11-12T11:35:45.355Z,5.15
2017-11-12T11:36:44.984Z,5.15
2017-11-12T11:37:46.211Z,5.11
2017-11-12T11:38:45.034Z,5.10
2017-11-12T11:39:45.061Z,5.11
2017-11-12T11:40:45.058Z,5.11
2017-11-12T11:41:44.473Z,5.14
2017-11-12T11:42:45.110Z,5.17
2017-11-12T11:43:44.587Z,5.17
2017-11-12T11:44:45.602Z,5.20
2017-11-12T11:45:45.597Z,5.21
2017-11-12T11:46:44.919Z,5.17
2017-11-12T11:47:45.883Z,5.17
2017-11-12T11:48:45.707Z,5.18
2017-11-12T11:49:45.955Z,5.20
2017-11-12T11:50:45.802Z,5.26
2017-11-12T11:51:45.582Z,5.28
2017-11-12T11:52:45.439Z,5.30
2017-11-12T11:53:44.613Z,5.29
2017-11-12T11:54:46.473Z,5.26
2017-11-12T11:55:45.908Z,5.21
2017-11-12T11:56:48.901Z,5.20
2017-11-12T11:57:45.340Z,5.20
2017-11-12T11:58:46.002Z,5.25
2017-11-12T11:59:46.177Z,5.26
2017-11-12T12:00:45.288Z,5.28
2017-11-12T12:01:46.229Z,5.26
2017-11-12T12:02:44.832Z,5.23
2017-11-12T12:03:45.679Z,5.25
2017-11-12T12:04:46.415Z,5.18
2017-11-12T12:05:45.864Z,5.15
2017-11-12T12:06:45.715Z,5.17
2017-11-12T12:07:45.367Z,5.17
2017-11-12T12:08:45.091Z,5.18
2017-11-12T12:09:45.480Z,5.20
2017-11-12T12:10:45.445Z,5.20
2017-11-12T12:12:48.224Z,5.15
2017-11-12T12:13:49.373Z,5.15
2017-11-12T12:14:49.321Z,5.12
2017-11-12T12:15:48.991Z,5.12
2017-11-12T12:16:49.402Z,5.14
2017-11-12T12:17:49.624Z,5.15
2017-11-12T12:18:48.988Z,5.14
2017-11-12T12:19:49.069Z,5.14
2017-11-12T12:20:50.102Z,5.15
2017-11-12T12:21:49.409Z,5.17
2017-11-12T12:22:48.748Z,5.18
2017-11-12T12:23:49.012Z,5.20
2017-11-12T12:24:49.392Z,5.21
2017-11-12T12:25:50.260Z,5.20
2017-11-12T12:26:50.763Z,5.21
2017-11-12T12:27:48.751Z,5.26
2017-11-12T12:28:49.254Z,5.28
2017-11-12T12:29:51.978Z,5.30
2017-11-12T12:30:48.456Z,5.30
2017-11-12T12:31:49.869Z,5.28
2017-11-12T12:32:49.190Z,5.23
2017-11-12T12:33:49.478Z,5.25
2017-11-12T12:34:49.009Z,5.23
2017-11-12T12:35:48.632Z,5.23
2017-11-12T12:36:48.467Z,5.17
2017-11-12T12:37:51.077Z,5.17
2017-11-12T12:38:48.968Z,5.15
2017-11-12T12:39:49.279Z,5.17
2017-11-12T12:40:49.212Z,5.17
2017-11-12T12:41:51.576Z,5.18
2017-11-12T12:42:48.849Z,5.20
2017-11-12T12:43:49.329Z,5.25
2017-11-12T12:44:49.439Z,5.26
2017-11-12T12:45:50.393Z,5.26
2017-11-12T12:46:48.301Z,5.25
2017-11-12T12:47:49.130Z,5.15
2017-11-12T12:48:49.489Z,5.15
2017-11-12T12:49:49.235Z,5.23
2017-11-12T12:50:49.008Z,5.32
2017-11-12T12:51:49.325Z,5.51
2017-11-12T12:52:49.190Z,5.71
2017-11-12T12:53:49.800Z,5.73
2017-11-12T12:54:48.826Z,5.75
2017-11-12T12:55:49.522Z,5.69
2017-11-12T12:56:49.964Z,5.62
2017-11-12T12:57:48.783Z,5.57
2017-11-12T12:58:49.055Z,5.51
2017-11-12T12:59:49.629Z,5.54
2017-11-12T13:00:50.392Z,5.65
2017-11-12T13:01:51.221Z,5.72
2017-11-12T13:02:49.616Z,5.68
2017-11-12T13:03:49.233Z,5.76
2017-11-12T13:04:49.130Z,5.80
2017-11-12T13:05:49.081Z,5.82
2017-11-12T13:06:48.754Z,5.84
2017-11-12T13:07:48.605Z,5.89
2017-11-12T13:08:49.037Z,5.97
2017-11-12T13:09:49.990Z,6.08
2017-11-12T13:10:49.526Z,6.24
2017-11-12T13:11:48.479Z,6.31
2017-11-12T13:12:49.750Z,6.42
2017-11-12T13:13:48.823Z,6.33
2017-11-12T13:14:49.057Z,6.38
2017-11-12T13:15:48.834Z,6.30
2017-11-12T13:16:48.358Z,6.22
2017-11-12T13:17:49.155Z,6.14
2017-11-12T13:18:48.959Z,6.17
2017-11-12T13:19:49.173Z,6.24